Time;durP1;ratioP1;P1;durP2;ratioP2;P2;SDS_P1;SDS_P2;PMS_P1;PMS_P2;Temp;Humidity;BMP_temperature;BMP_pressure;BME280_temperature;BME280_humidity;BME280_pressure;Samples;Min_cycle;Max_cycle;Signal;HPM_P1;HPM_P2
2022/03/05 00:00:43;;;;;;;;;;;0.30;99.90;;;;;;5053102;28;20007;-66
2022/03/05 00:03:09;;;;;;;;;;;0.30;99.90;;;;;;5069945;28;20433;-63
2022/03/05 00:05:35;;;;;;;;;;;0.20;99.90;;;;;;5037888;28;20388;-64
2022/03/05 00:08:00;;;;;;;;;;;0.20;99.90;;;;;;5054115;28;19926;-62
2022/03/05 00:10:26;;;;;;;;;;;0.20;99.90;;;;;;5070991;28;19939;-63
2022/03/05 00:12:52;;;;;;;;;;;0.60;99.90;;;;;;5070504;28;19924;-63
2022/03/05 00:15:18;;;;;;;;;;;0.60;99.90;;;;;;5053852;28;19970;-64
2022/03/05 00:17:44;;;;;;;;;;;0.20;99.90;;;;;;5054277;28;19932;-63
2022/03/05 00:20:10;;;;;;;;;;;0.10;99.90;;;;;;5070460;28;19925;-63
2022/03/05 00:22:36;;;;;;;;;;;0.10;99.90;;;;;;5070755;28;20385;-64
2022/03/05 00:25:02;;;;;;;;;;;0.10;99.90;;;;;;5070383;28;19924;-64
2022/03/05 00:27:28;;;;;;;;;;;0.10;99.90;;;;;;5070845;28;19932;-63
2022/03/05 00:29:54;;;;;;;;;;;0.60;99.90;;;;;;5070611;28;19925;-63
2022/03/05 00:32:19;;;;;;;;;;;0.20;99.90;;;;;;5070257;28;19924;-63
2022/03/05 00:34:45;;;;;;;;;;;0.20;99.90;;;;;;5053905;28;20393;-64
2022/03/05 00:37:11;;;;;;;;;;;0.10;99.90;;;;;;5071275;28;19924;-63
2022/03/05 00:39:36;;;;;;;;;;;0.00;99.90;;;;;;5070610;28;19924;-63
2022/03/05 00:42:03;;;;;;;;;;;0.00;99.90;;;;;;5069847;28;19924;-68
2022/03/05 00:44:29;;;;;;;;;;;0.00;99.90;;;;;;5070278;28;19924;-63
2022/03/05 00:46:54;;;;;;;;;;;0.00;99.90;;;;;;5071594;28;19931;-63
2022/03/05 00:49:20;;;;;;;;;;;0.00;99.90;;;;;;5070298;28;20148;-63
2022/03/05 00:51:46;;;;;;;;;;;0.00;99.90;;;;;;5070190;28;19929;-63
2022/03/05 00:54:11;;;;;;;;;;;-0.10;99.90;;;;;;5070231;28;20020;-64
2022/03/05 00:56:37;;;;;;;;;;;-0.10;99.90;;;;;;5070453;28;20366;-64
2022/03/05 00:59:03;;;;;;;;;;;0.00;99.90;;;;;;5070068;28;20354;-65
2022/03/05 01:01:28;;;;;;;;;;;-0.10;99.90;;;;;;5070655;28;19932;-64
2022/03/05 01:03:54;;;;;;;;;;;0.00;99.90;;;;;;5070416;28;19925;-63
2022/03/05 01:06:20;;;;;;;;;;;-0.10;99.90;;;;;;5071049;28;19924;-64
2022/03/05 01:08:45;;;;;;;;;;;-0.10;99.90;;;;;;5073827;28;19928;-64
2022/03/05 01:11:15;;;;;;;;;;;-0.10;99.90;;;;;;5073347;28;19974;-64
2022/03/05 01:13:41;;;;;;;;;;;-0.10;99.90;;;;;;5091208;28;19940;-64
2022/03/05 01:16:06;;;;;;;;;;;-0.10;99.90;;;;;;5075017;28;19924;-69
2022/03/05 01:18:32;;;;;;;;;;;-0.20;99.90;;;;;;5074870;28;19924;-64
2022/03/05 01:20:57;;;;;;;;;;;-0.20;99.90;;;;;;5091185;28;19924;-63
2022/03/05 01:23:23;;;;;;;;;;;-0.20;99.90;;;;;;5073557;28;19925;-64
2022/03/05 01:25:49;;;;;;;;;;;-0.30;99.90;;;;;;5074775;28;19925;-65
2022/03/05 01:28:14;;;;;;;;;;;-0.30;99.90;;;;;;5074528;28;19924;-64
2022/03/05 01:30:40;;;;;;;;;;;-0.30;99.90;;;;;;5074658;28;19924;-64
2022/03/05 01:33:06;;;;;;;;;;;-0.30;99.90;;;;;;5073466;28;20019;-64
2022/03/05 01:35:31;;;;;;;;;;;-0.30;99.90;;;;;;5073990;28;19924;-64
2022/03/05 01:37:57;;;;;;;;;;;-0.30;99.90;;;;;;5072682;28;20385;-66
2022/03/05 01:40:22;;;;;;;;;;;-0.40;99.90;;;;;;5072994;28;19967;-64
2022/03/05 01:42:48;;;;;;;;;;;-0.40;99.90;;;;;;5074534;28;19930;-64
2022/03/05 01:45:14;;;;;;;;;;;-0.40;99.90;;;;;;5074230;28;20420;-64
2022/03/05 01:47:40;;;;;;;;;;;-0.40;99.90;;;;;;5074540;28;19925;-65
2022/03/05 01:50:06;;;;;;;;;;;-0.40;99.90;;;;;;5074312;28;19924;-65
2022/03/05 01:52:32;;;;;;;;;;;-0.40;99.90;;;;;;5072544;28;20215;-64
2022/03/05 01:54:58;;;;;;;;;;;-0.50;99.90;;;;;;5072919;28;20330;-64
2022/03/05 01:57:23;;;;;;;;;;;-0.50;99.90;;;;;;5072893;28;19968;-63
2022/03/05 01:59:52;;;;;;;;;;;-0.50;99.90;;;;;;5056675;28;19931;-64
2022/03/05 02:02:17;;;;;;;;;;;-0.50;99.90;;;;;;5054995;28;20019;-66
2022/03/05 02:04:43;;;;;;;;;;;-0.50;99.90;;;;;;5072938;28;19980;-65
2022/03/05 02:07:09;;;;;;;;;;;-0.50;99.90;;;;;;5073013;28;19924;-64
2022/03/05 02:09:35;;;;;;;;;;;-0.60;99.90;;;;;;5073696;28;20024;-64
2022/03/05 02:12:00;;;;;;;;;;;-0.60;99.90;;;;;;5073768;28;20023;-64
2022/03/05 02:14:29;;;;;;;;;;;-0.30;99.90;;;;;;5073641;28;19978;-64
2022/03/05 02:16:55;;;;;;;;;;;-0.70;99.90;;;;;;5072602;28;19925;-65
2022/03/05 02:19:21;;;;;;;;;;;-0.70;99.90;;;;;;5055129;28;19925;-64
2022/03/05 02:21:47;;;;;;;;;;;-0.70;99.90;;;;;;5073742;28;20321;-64
2022/03/05 02:24:12;;;;;;;;;;;-0.80;99.90;;;;;;5072605;28;19924;-64
2022/03/05 02:26:38;;;;;;;;;;;-0.80;99.90;;;;;;5073155;28;20377;-66
2022/03/05 02:29:04;;;;;;;;;;;-0.80;99.90;;;;;;5073341;28;19924;-64
2022/03/05 02:31:29;;;;;;;;;;;-0.90;99.90;;;;;;5072176;28;19931;-67
2022/03/05 02:33:55;;;;;;;;;;;-0.90;99.90;;;;;;5073551;28;20460;-64
2022/03/05 02:36:22;;;;;;;;;;;-0.60;99.90;;;;;;5073196;28;19924;-64
2022/03/05 02:38:48;;;;;;;;;;;-0.90;99.90;;;;;;5072099;28;19932;-64
2022/03/05 02:41:14;;;;;;;;;;;-0.90;99.90;;;;;;5073181;28;19955;-63
2022/03/05 02:43:39;;;;;;;;;;;-0.90;99.90;;;;;;5072821;28;19924;-63
2022/03/05 02:46:05;;;;;;;;;;;-0.90;99.90;;;;;;5106162;28;19950;-62
2022/03/05 02:48:33;;;;;;;;;;;-0.90;99.90;;;;;;5072556;28;19978;-64
2022/03/05 02:50:59;;;;;;;;;;;-0.90;99.90;;;;;;5071764;28;19924;-64
2022/03/05 02:53:24;;;;;;;;;;;-0.90;99.90;;;;;;5071252;28;19978;-63
2022/03/05 02:55:50;;;;;;;;;;;-0.90;99.90;;;;;;5072822;28;19928;-63
2022/03/05 02:58:15;;;;;;;;;;;-0.90;99.90;;;;;;5071804;28;19928;-63
2022/03/05 03:00:41;;;;;;;;;;;-0.90;99.90;;;;;;5072318;28;20106;-64
2022/03/05 03:03:07;;;;;;;;;;;-0.90;99.90;;;;;;5105269;28;19935;-64
2022/03/05 03:05:32;;;;;;;;;;;-0.90;99.90;;;;;;5072693;28;20281;-67
2022/03/05 03:07:58;;;;;;;;;;;-0.90;99.90;;;;;;5071863;28;19924;-64
2022/03/05 03:10:24;;;;;;;;;;;-0.90;99.90;;;;;;5071354;28;19925;-63
2022/03/05 03:12:49;;;;;;;;;;;-0.90;99.90;;;;;;5071431;28;19924;-63
2022/03/05 03:15:15;;;;;;;;;;;-0.90;99.90;;;;;;5071860;28;19932;-63
2022/03/05 03:17:42;;;;;;;;;;;-0.10;99.90;;;;;;5072203;28;19924;-63
2022/03/05 03:20:08;;;;;;;;;;;-0.90;99.90;;;;;;5054870;28;19975;-64
2022/03/05 03:22:34;;;;;;;;;;;-0.90;99.90;;;;;;5070958;28;19930;-63
2022/03/05 03:25:00;;;;;;;;;;;-0.80;99.90;;;;;;5071599;28;19925;-63
2022/03/05 03:27:25;;;;;;;;;;;-0.90;99.90;;;;;;5071128;28;19924;-64
2022/03/05 03:29:51;;;;;;;;;;;-1.00;99.90;;;;;;5071010;28;19990;-63
2022/03/05 03:32:16;;;;;;;;;;;-0.60;99.90;;;;;;5072161;28;19929;-63
2022/03/05 03:34:42;;;;;;;;;;;-1.00;99.90;;;;;;5072090;28;20282;-64
2022/03/05 03:37:08;;;;;;;;;;;-1.00;99.90;;;;;;5071430;28;19931;-63
2022/03/05 03:39:33;;;;;;;;;;;-1.00;99.90;;;;;;5071968;28;19924;-63
2022/03/05 03:41:59;;;;;;;;;;;-1.10;99.90;;;;;;5070926;28;19925;-63
2022/03/05 03:44:24;;;;;;;;;;;-0.50;99.90;;;;;;5071200;28;19932;-64
2022/03/05 03:46:52;;;;;;;;;;;-1.10;99.90;;;;;;5070925;28;19985;-63
2022/03/05 03:49:18;;;;;;;;;;;-1.10;99.90;;;;;;5071141;28;20262;-64
2022/03/05 03:51:43;;;;;;;;;;;-1.20;99.90;;;;;;5070694;28;19943;-63
2022/03/05 03:54:09;;;;;;;;;;;-1.20;99.90;;;;;;5070904;28;20392;-63
2022/03/05 03:56:34;;;;;;;;;;;-1.20;99.90;;;;;;5070813;28;19951;-63
2022/03/05 03:59:00;;;;;;;;;;;-1.20;99.90;;;;;;5070945;28;20381;-64
2022/03/05 04:01:25;;;;;;;;;;;-1.20;99.90;;;;;;5070569;28;19924;-64
2022/03/05 04:03:51;;;;;;;;;;;-1.20;99.90;;;;;;5071534;28;19925;-63
2022/03/05 04:06:17;;;;;;;;;;;-1.20;99.90;;;;;;5070829;28;19928;-65
2022/03/05 04:08:42;;;;;;;;;;;-1.20;99.90;;;;;;5070232;28;19929;-66
2022/03/05 04:11:18;;;;;;;;;;;-1.20;99.90;;;;;;5070844;28;19971;-64
2022/03/05 04:13:45;;;;;;;;;;;-1.30;99.90;;;;;;5070330;28;19925;-64
2022/03/05 04:16:11;;;;;;;;;;;-1.20;99.90;;;;;;5054163;28;19967;-64
2022/03/05 04:18:37;;;;;;;;;;;-1.30;99.90;;;;;;5071522;28;19967;-63
2022/03/05 04:21:04;;;;;;;;;;;-1.20;99.90;;;;;;5070648;28;19925;-63
2022/03/05 04:23:30;;;;;;;;;;;-1.30;99.90;;;;;;5070576;28;20003;-64
2022/03/05 04:25:55;;;;;;;;;;;-1.30;99.90;;;;;;5070733;28;19931;-63
2022/03/05 04:28:21;;;;;;;;;;;-1.30;99.90;;;;;;5071591;28;19924;-68
2022/03/05 04:30:47;;;;;;;;;;;-1.30;99.90;;;;;;5071127;28;19935;-64
2022/03/05 04:33:12;;;;;;;;;;;-1.30;99.90;;;;;;5071593;28;19920;-64
2022/03/05 04:35:38;;;;;;;;;;;-1.30;99.90;;;;;;5070384;28;20267;-63
2022/03/05 04:38:04;;;;;;;;;;;-1.10;99.90;;;;;;5054036;28;19927;-64
2022/03/05 04:40:29;;;;;;;;;;;-1.30;99.90;;;;;;5071862;28;19932;-63
2022/03/05 04:42:55;;;;;;;;;;;-1.30;99.90;;;;;;5071529;28;19924;-64
2022/03/05 04:45:21;;;;;;;;;;;-1.30;99.90;;;;;;5075496;28;19925;-64
2022/03/05 04:47:47;;;;;;;;;;;-1.30;99.90;;;;;;5057526;28;19935;-63
2022/03/05 04:50:12;;;;;;;;;;;-1.30;99.90;;;;;;5074511;28;20013;-63
2022/03/05 04:52:38;;;;;;;;;;;-1.30;99.90;;;;;;5073923;28;19932;-63
2022/03/05 04:55:04;;;;;;;;;;;-1.30;99.90;;;;;;5075342;28;19925;-62
2022/03/05 04:57:30;;;;;;;;;;;-1.30;99.90;;;;;;5074029;28;20023;-63
2022/03/05 04:59:55;;;;;;;;;;;-1.10;99.90;;;;;;5073840;28;20059;-63
2022/03/05 05:02:21;;;;;;;;;;;-1.30;99.90;;;;;;5075434;28;19924;-63
2022/03/05 05:04:47;;;;;;;;;;;-1.30;99.90;;;;;;5073663;28;20394;-63
2022/03/05 05:07:12;;;;;;;;;;;-1.30;99.90;;;;;;5074986;28;19924;-63
2022/03/05 05:09:40;;;;;;;;;;;-1.40;99.90;;;;;;5074917;28;19964;-64
2022/03/05 05:12:06;;;;;;;;;;;-1.40;99.90;;;;;;5074063;28;19970;-63
2022/03/05 05:14:31;;;;;;;;;;;-1.40;99.90;;;;;;5074974;28;20345;-64
2022/03/05 05:16:57;;;;;;;;;;;-1.40;99.90;;;;;;5073492;28;19982;-64
2022/03/05 05:19:27;;;;;;;;;;;-1.40;99.90;;;;;;5073611;28;19931;-63
2022/03/05 05:21:57;;;;;;;;;;;-1.30;99.90;;;;;;5073372;28;19928;-64
2022/03/05 05:24:26;;;;;;;;;;;-1.40;99.90;;;;;;5073861;28;19928;-63
2022/03/05 05:26:52;;;;;;;;;;;-1.40;99.90;;;;;;5074477;28;19985;-63
2022/03/05 05:29:18;;;;;;;;;;;-1.00;99.90;;;;;;5073843;28;19925;-64
2022/03/05 05:31:44;;;;;;;;;;;-1.10;99.90;;;;;;5073005;28;19924;-64
2022/03/05 05:34:10;;;;;;;;;;;-1.40;99.90;;;;;;5073694;28;19924;-63
2022/03/05 05:36:38;;;;;;;;;;;-1.40;99.90;;;;;;5073585;28;20290;-64
2022/03/05 05:39:07;;;;;;;;;;;-1.40;99.90;;;;;;5073193;28;19947;-64
2022/03/05 05:41:33;;;;;;;;;;;-1.40;99.90;;;;;;5074386;28;19982;-64
2022/03/05 05:43:59;;;;;;;;;;;-1.10;99.90;;;;;;5072897;28;19932;-64
2022/03/05 05:46:25;;;;;;;;;;;-1.40;99.90;;;;;;5072981;28;19925;-64
2022/03/05 05:48:54;;;;;;;;;;;-1.30;99.90;;;;;;5073690;28;19925;-66
2022/03/05 05:51:20;;;;;;;;;;;-1.40;99.90;;;;;;5073141;28;19924;-63
2022/03/05 05:53:45;;;;;;;;;;;-1.40;99.90;;;;;;5071882;28;20277;-64
2022/03/05 05:56:11;;;;;;;;;;;-1.40;99.90;;;;;;5073486;28;19975;-65
2022/03/05 05:58:36;;;;;;;;;;;-1.50;99.90;;;;;;5072919;28;19935;-65
2022/03/05 06:01:02;;;;;;;;;;;-1.50;99.90;;;;;;5072278;28;19958;-64
2022/03/05 06:03:28;;;;;;;;;;;-1.50;99.90;;;;;;5073873;28;19975;-64
2022/03/05 06:05:56;;;;;;;;;;;-1.50;99.90;;;;;;5072283;28;19975;-64
2022/03/05 06:08:21;;;;;;;;;;;-1.50;99.90;;;;;;5073774;28;20332;-65
2022/03/05 06:10:47;;;;;;;;;;;-1.50;99.90;;;;;;5073791;28;19935;-64
2022/03/05 06:13:12;;;;;;;;;;;-1.50;99.90;;;;;;5073693;28;19940;-64
2022/03/05 06:15:38;;;;;;;;;;;-1.50;99.90;;;;;;5073964;28;19928;-64
2022/03/05 06:18:04;;;;;;;;;;;-1.50;99.90;;;;;;5072378;28;20169;-64
2022/03/05 06:20:29;;;;;;;;;;;-1.50;99.90;;;;;;5072675;28;19947;-64
2022/03/05 06:22:55;;;;;;;;;;;-1.50;99.90;;;;;;5073613;28;19925;-64
2022/03/05 06:25:20;;;;;;;;;;;-1.50;99.90;;;;;;5072278;28;20293;-64
2022/03/05 06:27:46;;;;;;;;;;;-1.50;99.90;;;;;;5055468;28;19995;-66
2022/03/05 06:30:12;;;;;;;;;;;-1.50;99.90;;;;;;5073527;28;20346;-64
2022/03/05 06:32:38;;;;;;;;;;;-1.60;99.90;;;;;;5073261;28;19991;-64
2022/03/05 06:35:05;;;;;;;;;;;-1.50;99.90;;;;;;5055521;28;20369;-65
2022/03/05 06:37:31;;;;;;;;;;;-1.50;99.90;;;;;;5071805;28;20373;-64
2022/03/05 06:39:59;;;;;;;;;;;-1.50;99.90;;;;;;5071809;28;19924;-63
2022/03/05 06:42:25;;;;;;;;;;;-1.50;99.90;;;;;;5073015;28;19924;-65
2022/03/05 06:44:51;;;;;;;;;;;-1.50;99.90;;;;;;5072937;28;20301;-63
2022/03/05 06:47:16;;;;;;;;;;;-1.40;99.90;;;;;;5072154;28;19991;-64
2022/03/05 06:49:42;;;;;;;;;;;-0.90;99.90;;;;;;5072911;28;19950;-65
2022/03/05 06:52:10;;;;;;;;;;;-1.40;99.90;;;;;;5071710;28;19944;-63
2022/03/05 06:54:36;;;;;;;;;;;-1.00;99.90;;;;;;5073042;28;19974;-63
2022/03/05 06:57:01;;;;;;;;;;;-1.40;99.90;;;;;;5071467;28;19932;-63
2022/03/05 06:59:27;;;;;;;;;;;-1.30;99.90;;;;;;5072591;28;20336;-63
2022/03/05 07:01:53;;;;;;;;;;;-1.30;99.90;;;;;;5072535;28;19931;-63
2022/03/05 07:04:19;;;;;;;;;;;-1.20;99.90;;;;;;5072819;28;20055;-63
2022/03/05 07:06:44;;;;;;;;;;;-1.20;99.90;;;;;;5072206;28;19994;-63
2022/03/05 07:09:10;;;;;;;;;;;-1.10;99.90;;;;;;5071021;28;19978;-63
2022/03/05 07:11:35;;;;;;;;;;;-1.00;99.90;;;;;;5072783;28;19931;-63
2022/03/05 07:14:01;;;;;;;;;;;-0.90;99.90;;;;;;5072067;28;20007;-65
2022/03/05 07:16:27;;;;;;;;;;;-0.80;99.90;;;;;;5071521;28;20019;-63
2022/03/05 07:18:52;;;;;;;;;;;-0.60;99.90;;;;;;5071077;28;20405;-65
2022/03/05 07:21:18;;;;;;;;;;;0.10;99.90;;;;;;5072387;28;19925;-65
2022/03/05 07:23:43;;;;;;;;;;;1.00;99.90;;;;;;5072848;28;19994;-64
2022/03/05 07:26:09;;;;;;;;;;;2.00;99.90;;;;;;5072245;28;20427;-65
2022/03/05 07:28:35;;;;;;;;;;;3.00;99.90;;;;;;5054206;28;19970;-64
2022/03/05 07:31:00;;;;;;;;;;;3.70;99.90;;;;;;5104673;28;19925;-65
2022/03/05 07:33:26;;;;;;;;;;;4.30;99.90;;;;;;5070970;28;19928;-64
2022/03/05 07:35:52;;;;;;;;;;;4.70;99.90;;;;;;5071268;28;20290;-64
2022/03/05 07:38:17;;;;;;;;;;;5.00;99.90;;;;;;5070687;28;20423;-64
2022/03/05 07:40:43;;;;;;;;;;;5.40;99.90;;;;;;5104610;28;20370;-64
2022/03/05 07:43:09;;;;;;;;;;;5.80;99.90;;;;;;5070776;28;19924;-64
2022/03/05 07:45:34;;;;;;;;;;;6.30;99.90;;;;;;5072043;28;20013;-65
2022/03/05 07:48:00;;;;;;;;;;;6.70;99.90;;;;;;5070245;28;20023;-65
2022/03/05 07:50:25;;;;;;;;;;;7.10;99.90;;;;;;5072132;28;19985;-64
2022/03/05 07:52:51;;;;;;;;;;;7.40;99.90;;;;;;5071702;28;20079;-64
2022/03/05 07:55:16;;;;;;;;;;;7.70;99.90;;;;;;5071339;28;19929;-63
2022/03/05 07:57:42;;;;;;;;;;;7.90;99.90;;;;;;5070903;28;19977;-64
2022/03/05 08:00:08;;;;;;;;;;;8.30;99.90;;;;;;5070011;28;20361;-64
2022/03/05 08:02:33;;;;;;;;;;;8.70;99.90;;;;;;5053735;28;20006;-64
2022/03/05 08:04:59;;;;;;;;;;;8.70;99.90;;;;;;5071527;28;19924;-65
2022/03/05 08:07:25;;;;;;;;;;;9.20;99.90;;;;;;5070541;28;20156;-64
2022/03/05 08:09:50;;;;;;;;;;;9.30;99.90;;;;;;5071821;28;20232;-65
2022/03/05 08:12:16;;;;;;;;;;;9.60;99.90;;;;;;5053066;28;19986;-65
2022/03/05 08:14:44;;;;;;;;;;;9.80;99.90;;;;;;5070121;28;19924;-65
2022/03/05 08:17:11;;;;;;;;;;;9.80;99.90;;;;;;5070431;28;19924;-65
2022/03/05 08:19:36;;;;;;;;;;;9.90;99.90;;;;;;5071391;28;19969;-65
2022/03/05 08:22:02;;;;;;;;;;;9.90;99.90;;;;;;5070387;28;19924;-65
2022/03/05 08:24:27;;;;;;;;;;;9.90;99.90;;;;;;5070041;28;19946;-65
2022/03/05 08:26:53;;;;;;;;;;;10.00;99.90;;;;;;5053623;28;19970;-65
2022/03/05 08:29:19;;;;;;;;;;;10.10;99.90;;;;;;5070236;28;19930;-65
2022/03/05 08:31:44;;;;;;;;;;;10.10;99.90;;;;;;5070203;28;19924;-67
2022/03/05 08:34:10;;;;;;;;;;;10.30;99.90;;;;;;5070010;28;19986;-65
2022/03/05 08:36:36;;;;;;;;;;;10.80;99.90;;;;;;5070368;28;19987;-66
2022/03/05 08:39:02;;;;;;;;;;;11.00;99.90;;;;;;5071472;28;19931;-73
2022/03/05 08:41:28;;;;;;;;;;;11.00;95.90;;;;;;5071392;28;19979;-66
2022/03/05 08:43:53;;;;;;;;;;;11.30;97.10;;;;;;5071498;28;19939;-65
2022/03/05 08:46:19;;;;;;;;;;;11.00;94.70;;;;;;5069610;28;19932;-65
2022/03/05 08:48:44;;;;;;;;;;;10.90;93.30;;;;;;5053597;28;19928;-65
2022/03/05 08:51:10;;;;;;;;;;;11.00;95.80;;;;;;5071099;28;19974;-67
2022/03/05 08:53:36;;;;;;;;;;;11.00;93.50;;;;;;5071450;28;20021;-65
2022/03/05 08:56:01;;;;;;;;;;;11.00;93.70;;;;;;5071306;28;19969;-65
2022/03/05 08:58:27;;;;;;;;;;;11.00;94.20;;;;;;5070005;28;19925;-67
2022/03/05 09:00:53;;;;;;;;;;;11.20;94.00;;;;;;5070137;28;19925;-64
2022/03/05 09:03:19;;;;;;;;;;;11.00;93.40;;;;;;5070941;28;19925;-65
2022/03/05 09:05:46;;;;;;;;;;;11.00;92.40;;;;;;5071164;28;19925;-64
2022/03/05 09:08:12;;;;;;;;;;;11.20;94.40;;;;;;5069984;28;19975;-64
2022/03/05 09:10:37;;;;;;;;;;;11.30;93.40;;;;;;5070538;28;19970;-64
2022/03/05 09:13:03;;;;;;;;;;;11.50;93.40;;;;;;5071337;28;19924;-64
2022/03/05 09:15:29;;;;;;;;;;;11.50;93.20;;;;;;5070926;28;20362;-67
2022/03/05 09:17:54;;;;;;;;;;;10.50;92.30;;;;;;5070053;28;20019;-64
2022/03/05 09:20:20;;;;;;;;;;;9.50;93.20;;;;;;5070940;28;19931;-65
2022/03/05 09:22:46;;;;;;;;;;;8.70;95.60;;;;;;5070762;28;20499;-64
2022/03/05 09:25:11;;;;;;;;;;;8.10;96.80;;;;;;5069947;28;19925;-64
2022/03/05 09:27:37;;;;;;;;;;;7.80;98.00;;;;;;5071065;28;20346;-63
2022/03/05 09:30:04;;;;;;;;;;;7.50;98.50;;;;;;5073023;28;20007;-66
2022/03/05 09:32:29;;;;;;;;;;;7.20;99.90;;;;;;5074460;28;19925;-63
2022/03/05 09:34:59;;;;;;;;;;;7.10;99.90;;;;;;5073675;28;20062;-63
2022/03/05 09:37:28;;;;;;;;;;;7.00;99.90;;;;;;5073806;28;19979;-65
2022/03/05 09:39:54;;;;;;;;;;;6.70;99.90;;;;;;5074296;28;20265;-63
2022/03/05 09:42:20;;;;;;;;;;;6.50;99.90;;;;;;5055927;28;20314;-64
2022/03/05 09:44:45;;;;;;;;;;;6.30;99.90;;;;;;5074533;28;20018;-64
2022/03/05 09:47:11;;;;;;;;;;;6.10;99.90;;;;;;5072800;28;19924;-66
2022/03/05 09:49:38;;;;;;;;;;;6.00;99.90;;;;;;5073124;28;19932;-64
2022/03/05 09:52:04;;;;;;;;;;;6.00;99.90;;;;;;5073439;28;19924;-64
2022/03/05 09:54:29;;;;;;;;;;;5.90;99.90;;;;;;5056073;28;20247;-64
2022/03/05 09:56:55;;;;;;;;;;;5.80;99.90;;;;;;5074165;28;19974;-64
2022/03/05 09:59:24;;;;;;;;;;;5.90;99.90;;;;;;5072641;28;19928;-64
2022/03/05 10:01:51;;;;;;;;;;;5.80;99.90;;;;;;5073776;28;19925;-63
2022/03/05 10:04:18;;;;;;;;;;;5.70;99.90;;;;;;5072959;28;19928;-67
2022/03/05 10:06:44;;;;;;;;;;;5.70;99.90;;;;;;5073073;28;19932;-63
2022/03/05 10:09:20;;;;;;;;;;;5.70;99.90;;;;;;5072746;28;20287;-64
2022/03/05 10:11:45;;;;;;;;;;;5.70;99.90;;;;;;5072859;28;20322;-64
2022/03/05 10:14:15;;;;;;;;;;;5.60;99.90;;;;;;5072223;28;20015;-63
2022/03/05 10:16:41;;;;;;;;;;;5.50;99.90;;;;;;5072426;28;19924;-63
2022/03/05 10:19:17;;;;;;;;;;;5.50;99.90;;;;;;5072383;28;19929;-63
2022/03/05 10:22:08;;;;;;;;;;;5.50;99.90;;;;;;5072733;28;19974;-64
2022/03/05 10:24:37;;;;;;;;;;;5.40;99.90;;;;;;5073085;28;20378;-64
2022/03/05 10:27:04;;;;;;;;;;;5.30;99.90;;;;;;5072576;28;19981;-64
2022/03/05 10:29:34;;;;;;;;;;;5.40;99.90;;;;;;5071703;28;19932;-63
2022/03/05 10:32:02;;;;;;;;;;;5.40;99.90;;;;;;5073313;28;19932;-64
2022/03/05 10:34:45;;;;;;;;;;;5.50;99.90;;;;;;5071819;28;19972;-62
2022/03/05 10:37:11;;;;;;;;;;;5.50;99.90;;;;;;5072335;28;20010;-64
2022/03/05 10:39:36;;;;;;;;;;;5.60;99.90;;;;;;5071810;28;20052;-63
2022/03/05 10:42:03;;;;;;;;;;;5.70;99.90;;;;;;5072742;28;20035;-63
2022/03/05 10:44:28;;;;;;;;;;;5.70;99.90;;;;;;5072436;28;19931;-65
2022/03/05 10:46:58;;;;;;;;;;;5.70;99.90;;;;;;5072110;28;20341;-63
2022/03/05 10:49:26;;;;;;;;;;;5.70;99.90;;;;;;5072747;28;19947;-64
2022/03/05 10:52:21;;;;;;;;;;;5.70;99.90;;;;;;5055142;28;20279;-66
2022/03/05 10:54:48;;;;;;;;;;;5.70;99.90;;;;;;5063509;28;20026;-66
2022/03/05 10:57:17;;;;;;;;;;;5.70;99.90;;;;;;5072002;28;20257;-66
2022/03/05 10:59:42;;;;;;;;;;;5.80;99.90;;;;;;5105513;28;19924;-65
2022/03/05 11:02:11;;;;;;;;;;;5.80;99.90;;;;;;5072229;28;20297;-65
2022/03/05 11:04:39;;;;;;;;;;;5.80;99.90;;;;;;5072254;28;19951;-63
2022/03/05 11:07:06;;;;;;;;;;;5.80;99.90;;;;;;5072474;28;20381;-64
2022/03/05 11:09:32;;;;;;;;;;;5.80;99.90;;;;;;5072220;28;19925;-64
2022/03/05 11:11:59;;;;;;;;;;;5.90;99.90;;;;;;5071247;28;19925;-66
2022/03/05 11:14:25;;;;;;;;;;;5.90;99.90;;;;;;5072488;28;19924;-65
2022/03/05 11:16:50;;;;;;;;;;;5.80;99.90;;;;;;5072591;28;19978;-65
2022/03/05 11:19:16;;;;;;;;;;;5.90;99.90;;;;;;5071117;28;19954;-67
2022/03/05 11:21:42;;;;;;;;;;;5.80;99.90;;;;;;5072304;28;20019;-65
2022/03/05 11:24:11;;;;;;;;;;;5.90;99.90;;;;;;5105085;28;19925;-64
2022/03/05 11:26:37;;;;;;;;;;;5.80;99.90;;;;;;5070971;28;19928;-65
2022/03/05 11:29:03;;;;;;;;;;;5.90;99.90;;;;;;5071180;28;19924;-65
2022/03/05 11:31:34;;;;;;;;;;;5.90;99.90;;;;;;5054156;28;20098;-64
2022/03/05 11:34:13;;;;;;;;;;;6.00;99.90;;;;;;5072302;28;19931;-67
2022/03/05 11:36:39;;;;;;;;;;;6.00;99.90;;;;;;5088031;28;19966;-65
2022/03/05 11:39:15;;;;;;;;;;;6.10;99.90;;;;;;5037905;28;19924;-65
2022/03/05 11:42:01;;;;;;;;;;;6.00;99.90;;;;;;5070643;28;19924;-65
2022/03/05 11:44:36;;;;;;;;;;;6.00;99.90;;;;;;5053669;28;19929;-64
2022/03/05 11:47:21;;;;;;;;;;;6.00;99.90;;;;;;5071192;28;19925;-64
2022/03/05 11:49:56;;;;;;;;;;;6.10;99.90;;;;;;5071497;28;20298;-64
2022/03/05 11:52:22;;;;;;;;;;;6.20;99.90;;;;;;5070145;28;19932;-64
2022/03/05 11:55:06;;;;;;;;;;;6.20;99.90;;;;;;5071785;28;20007;-64
2022/03/05 11:57:31;;;;;;;;;;;6.20;99.90;;;;;;5070664;28;19925;-65
2022/03/05 12:00:03;;;;;;;;;;;6.10;99.90;;;;;;5070287;28;19997;-63
2022/03/05 12:02:41;;;;;;;;;;;6.20;99.90;;;;;;5071073;28;19924;-63
2022/03/05 12:05:06;;;;;;;;;;;6.20;99.90;;;;;;5070129;28;20393;-63
2022/03/05 12:07:36;;;;;;;;;;;6.30;99.90;;;;;;5071248;28;19974;-63
2022/03/05 12:10:10;;;;;;;;;;;6.30;99.90;;;;;;5070527;28;20258;-63
2022/03/05 12:12:52;;;;;;;;;;;6.30;99.90;;;;;;5071212;28;19925;-63
2022/03/05 12:15:18;;;;;;;;;;;6.40;99.90;;;;;;5070377;28;19932;-63
2022/03/05 12:17:48;;;;;;;;;;;6.40;99.90;;;;;;5069872;28;20362;-63
2022/03/05 12:20:16;;;;;;;;;;;6.40;99.90;;;;;;5053338;28;19925;-63
2022/03/05 12:22:55;;;;;;;;;;;6.60;99.90;;;;;;5069888;28;19924;-63
2022/03/05 12:25:21;;;;;;;;;;;6.70;99.90;;;;;;5104013;28;19991;-65
2022/03/05 12:27:50;;;;;;;;;;;6.70;99.90;;;;;;5069820;28;19929;-64
2022/03/05 12:30:17;;;;;;;;;;;6.60;99.90;;;;;;5069892;28;19925;-64
2022/03/05 12:32:45;;;;;;;;;;;6.50;99.90;;;;;;5071223;28;19932;-64
2022/03/05 12:35:10;;;;;;;;;;;6.50;99.90;;;;;;5070393;28;19972;-63
2022/03/05 12:37:36;;;;;;;;;;;6.50;99.90;;;;;;5071225;28;20045;-64
2022/03/05 12:40:05;;;;;;;;;;;6.50;99.90;;;;;;5070029;28;20320;-63
2022/03/05 12:42:44;;;;;;;;;;;6.50;99.90;;;;;;5070107;28;19924;-64
2022/03/05 12:45:20;;;;;;;;;;;6.40;99.90;;;;;;5069989;28;20118;-62
2022/03/05 12:47:46;;;;;;;;;;;6.40;99.90;;;;;;5069943;28;20321;-62
2022/03/05 12:50:18;;;;;;;;;;;6.40;99.90;;;;;;5053523;28;19925;-63
2022/03/05 12:52:54;;;;;;;;;;;6.40;99.90;;;;;;5070723;28;20312;-62
2022/03/05 12:55:20;;;;;;;;;;;6.40;99.90;;;;;;5070144;28;20011;-62
2022/03/05 12:57:46;;;;;;;;;;;6.50;99.90;;;;;;5071008;28;20087;-61
2022/03/05 13:00:12;;;;;;;;;;;6.50;99.90;;;;;;5104233;28;20374;-63
2022/03/05 13:02:37;;;;;;;;;;;6.40;99.90;;;;;;5069363;28;19924;-62
2022/03/05 13:05:15;;;;;;;;;;;6.50;99.90;;;;;;5073840;28;20285;-63
2022/03/05 13:07:41;;;;;;;;;;;6.50;99.90;;;;;;5056771;28;19970;-62
2022/03/05 13:10:08;;;;;;;;;;;6.50;99.90;;;;;;5074664;28;19928;-63
2022/03/05 13:12:36;;;;;;;;;;;6.50;99.90;;;;;;5074762;28;19932;-61
2022/03/05 13:15:03;;;;;;;;;;;6.50;99.90;;;;;;5074693;28;19924;-62
2022/03/05 13:17:28;;;;;;;;;;;6.50;99.90;;;;;;5073755;28;19936;-62
2022/03/05 13:20:01;;;;;;;;;;;6.70;99.90;;;;;;5073178;28;20388;-61
2022/03/05 13:22:27;;;;;;;;;;;6.60;99.90;;;;;;5073312;28;20271;-61
2022/03/05 13:24:52;;;;;;;;;;;6.70;99.90;;;;;;5074322;28;19927;-62
2022/03/05 13:27:23;;;;;;;;;;;6.70;99.90;;;;;;5074710;28;20301;-61
2022/03/05 13:29:50;;;;;;;;;;;6.70;99.90;;;;;;5074255;28;19925;-61
2022/03/05 13:32:16;;;;;;;;;;;6.70;99.90;;;;;;5074291;28;19967;-60
2022/03/05 13:34:41;;;;;;;;;;;6.80;99.90;;;;;;5072923;28;19936;-61
2022/03/05 13:37:09;;;;;;;;;;;6.80;99.90;;;;;;5074383;28;19935;-61
2022/03/05 13:39:35;;;;;;;;;;;6.80;99.90;;;;;;5074288;28;19924;-60
2022/03/05 13:42:09;;;;;;;;;;;6.80;99.90;;;;;;5073928;28;19924;-60
2022/03/05 13:44:36;;;;;;;;;;;6.80;99.90;;;;;;5074183;28;20073;-61
2022/03/05 13:47:04;;;;;;;;;;;6.80;99.90;;;;;;5073928;28;19924;-61
2022/03/05 13:49:30;;;;;;;;;;;6.80;99.90;;;;;;5073025;28;19939;-62
2022/03/05 13:51:56;;;;;;;;;;;6.80;99.90;;;;;;5072853;28;19924;-62
2022/03/05 13:54:35;;;;;;;;;;;6.70;99.90;;;;;;5074290;28;19932;-62
2022/03/05 13:57:01;;;;;;;;;;;6.70;99.90;;;;;;5073955;28;20144;-61
2022/03/05 13:59:48;;;;;;;;;;;6.80;99.90;;;;;;5070696;28;20374;-62
2022/03/05 14:02:15;;;;;;;;;;;6.70;99.90;;;;;;5073167;28;20293;-61
2022/03/05 14:04:56;;;;;;;;;;;6.70;99.90;;;;;;5073073;28;20023;-63
2022/03/05 14:07:21;;;;;;;;;;;6.80;99.90;;;;;;5073217;28;20362;-62
2022/03/05 14:09:47;;;;;;;;;;;6.80;99.90;;;;;;5071718;28;19924;-61
2022/03/05 14:12:14;;;;;;;;;;;6.80;99.90;;;;;;5073421;28;20018;-61
2022/03/05 14:14:40;;;;;;;;;;;6.80;99.90;;;;;;5073228;28;19924;-62
2022/03/05 14:17:06;;;;;;;;;;;6.80;99.90;;;;;;5072342;28;20031;-63
2022/03/05 14:19:33;;;;;;;;;;;6.90;99.90;;;;;;5073249;28;19924;-61
2022/03/05 14:22:12;;;;;;;;;;;6.80;99.90;;;;;;5072928;28;20286;-62